<?xml version="1.0" encoding="UTF-8" standalone="no" ?>
<gpx xmlns="http://www.topografix.com/GPX/1/1" xmlns:xsi="http://www.w3.org/2001/XMLSchema-instance" xsi:schemaLocation="http://www.topografix.com/GPX/1/1 http://www.topografix.com/GPX/1/1/gpx.xsd" version="1.1" creator="VisuGPX - https://www.visugpx.com">
  <metadata>
    <name>Les bords de l\\\'Allier</name>
    <desc><![CDATA[Les bords de l\'allier]]></desc>
  </metadata>
  <trk>
    <name><![CDATA[Les bords de l\\\'Allier_1]]></name>
    <trkseg>
      <trkpt lat="46.18619" lon="3.40022">
        <ele>253.7</ele>
        <time>2012-01-15T13:11:47Z</time>
      </trkpt>
      <trkpt lat="46.18623" lon="3.40024">
        <ele>253.6</ele>
        <time>2012-01-15T13:12:02Z</time>
      </trkpt>
      <trkpt lat="46.18623" lon="3.40022">
        <ele>253.6</ele>
        <time>2012-01-15T13:12:17Z</time>
      </trkpt>
      <trkpt lat="46.18619" lon="3.40022">
        <ele>253.7</ele>
        <time>2012-01-15T13:12:32Z</time>
      </trkpt>
      <trkpt lat="46.18617" lon="3.40021">
        <ele>253.8</ele>
        <time>2012-01-15T13:12:47Z</time>
      </trkpt>
      <trkpt lat="46.18621" lon="3.40026">
        <ele>253.6</ele>
        <time>2012-01-15T13:13:02Z</time>
      </trkpt>
      <trkpt lat="46.18619" lon="3.40019">
        <ele>253.7</ele>
        <time>2012-01-15T13:13:17Z</time>
      </trkpt>
      <trkpt lat="46.18621" lon="3.40019">
        <ele>253.7</ele>
        <time>2012-01-15T13:13:32Z</time>
      </trkpt>
      <trkpt lat="46.18618" lon="3.40015">
        <ele>253.8</ele>
        <time>2012-01-15T13:13:47Z</time>
      </trkpt>
      <trkpt lat="46.1862" lon="3.40016">
        <ele>253.7</ele>
        <time>2012-01-15T13:14:02Z</time>
      </trkpt>
      <trkpt lat="46.18614" lon="3.40008">
        <ele>253.9</ele>
        <time>2012-01-15T13:14:17Z</time>
      </trkpt>
      <trkpt lat="46.18611" lon="3.40012">
        <ele>254</ele>
        <time>2012-01-15T13:14:32Z</time>
      </trkpt>
      <trkpt lat="46.1861" lon="3.40028">
        <ele>254</ele>
        <time>2012-01-15T13:14:47Z</time>
      </trkpt>
      <trkpt lat="46.18613" lon="3.40056">
        <ele>253.9</ele>
        <time>2012-01-15T13:15:02Z</time>
      </trkpt>
      <trkpt lat="46.18616" lon="3.40079">
        <ele>253.8</ele>
        <time>2012-01-15T13:15:17Z</time>
      </trkpt>
      <trkpt lat="46.1862" lon="3.40107">
        <ele>253.7</ele>
        <time>2012-01-15T13:15:32Z</time>
      </trkpt>
      <trkpt lat="46.18624" lon="3.40131">
        <ele>253.1</ele>
        <time>2012-01-15T13:15:47Z</time>
      </trkpt>
      <trkpt lat="46.18627" lon="3.40157">
        <ele>253</ele>
        <time>2012-01-15T13:16:02Z</time>
      </trkpt>
      <trkpt lat="46.18627" lon="3.40184">
        <ele>253</ele>
        <time>2012-01-15T13:16:17Z</time>
      </trkpt>
      <trkpt lat="46.18637" lon="3.40215">
        <ele>253</ele>
        <time>2012-01-15T13:16:32Z</time>
      </trkpt>
      <trkpt lat="46.18651" lon="3.40232">
        <ele>252.7</ele>
        <time>2012-01-15T13:16:47Z</time>
      </trkpt>
      <trkpt lat="46.18665" lon="3.4025">
        <ele>252</ele>
        <time>2012-01-15T13:17:02Z</time>
      </trkpt>
      <trkpt lat="46.1868" lon="3.4026">
        <ele>251.8</ele>
        <time>2012-01-15T13:17:17Z</time>
      </trkpt>
      <trkpt lat="46.1869" lon="3.40266">
        <ele>251.7</ele>
        <time>2012-01-15T13:17:32Z</time>
      </trkpt>
      <trkpt lat="46.18707" lon="3.40269">
        <ele>251.5</ele>
        <time>2012-01-15T13:17:47Z</time>
      </trkpt>
      <trkpt lat="46.1872" lon="3.40284">
        <ele>250.8</ele>
        <time>2012-01-15T13:18:02Z</time>
      </trkpt>
      <trkpt lat="46.18737" lon="3.40292">
        <ele>250.5</ele>
        <time>2012-01-15T13:18:17Z</time>
      </trkpt>
      <trkpt lat="46.18758" lon="3.40302">
        <ele>250.1</ele>
        <time>2012-01-15T13:18:32Z</time>
      </trkpt>
      <trkpt lat="46.1879" lon="3.40308">
        <ele>249.8</ele>
        <time>2012-01-15T13:18:47Z</time>
      </trkpt>
      <trkpt lat="46.18808" lon="3.40315">
        <ele>249.3</ele>
        <time>2012-01-15T13:19:02Z</time>
      </trkpt>
      <trkpt lat="46.18826" lon="3.40323">
        <ele>248.7</ele>
        <time>2012-01-15T13:19:17Z</time>
      </trkpt>
      <trkpt lat="46.18841" lon="3.40325">
        <ele>248.8</ele>
        <time>2012-01-15T13:19:32Z</time>
      </trkpt>
      <trkpt lat="46.18857" lon="3.40325">
        <ele>249.2</ele>
        <time>2012-01-15T13:19:47Z</time>
      </trkpt>
      <trkpt lat="46.18871" lon="3.40324">
        <ele>249.3</ele>
        <time>2012-01-15T13:20:02Z</time>
      </trkpt>
      <trkpt lat="46.18891" lon="3.40322">
        <ele>249.4</ele>
        <time>2012-01-15T13:20:17Z</time>
      </trkpt>
      <trkpt lat="46.18907" lon="3.40328">
        <ele>249.6</ele>
        <time>2012-01-15T13:20:32Z</time>
      </trkpt>
      <trkpt lat="46.18924" lon="3.40343">
        <ele>249.8</ele>
        <time>2012-01-15T13:20:47Z</time>
      </trkpt>
      <trkpt lat="46.18945" lon="3.40362">
        <ele>251</ele>
        <time>2012-01-15T13:21:02Z</time>
      </trkpt>
      <trkpt lat="46.18963" lon="3.40379">
        <ele>251.2</ele>
        <time>2012-01-15T13:21:17Z</time>
      </trkpt>
      <trkpt lat="46.18977" lon="3.40391">
        <ele>251.3</ele>
        <time>2012-01-15T13:21:32Z</time>
      </trkpt>
      <trkpt lat="46.18995" lon="3.40408">
        <ele>252.1</ele>
        <time>2012-01-15T13:21:47Z</time>
      </trkpt>
      <trkpt lat="46.19011" lon="3.40426">
        <ele>252.3</ele>
        <time>2012-01-15T13:22:02Z</time>
      </trkpt>
      <trkpt lat="46.19019" lon="3.40449">
        <ele>251.9</ele>
        <time>2012-01-15T13:22:17Z</time>
      </trkpt>
      <trkpt lat="46.19033" lon="3.4046">
        <ele>252</ele>
        <time>2012-01-15T13:22:32Z</time>
      </trkpt>
      <trkpt lat="46.19048" lon="3.4048">
        <ele>251.7</ele>
        <time>2012-01-15T13:22:47Z</time>
      </trkpt>
      <trkpt lat="46.19059" lon="3.405">
        <ele>251</ele>
        <time>2012-01-15T13:23:02Z</time>
      </trkpt>
      <trkpt lat="46.19074" lon="3.4052">
        <ele>250.3</ele>
        <time>2012-01-15T13:23:17Z</time>
      </trkpt>
      <trkpt lat="46.1908" lon="3.40543">
        <ele>249.5</ele>
        <time>2012-01-15T13:23:32Z</time>
      </trkpt>
      <trkpt lat="46.1907" lon="3.40563">
        <ele>248.6</ele>
        <time>2012-01-15T13:23:47Z</time>
      </trkpt>
      <trkpt lat="46.19062" lon="3.4058">
        <ele>247.9</ele>
        <time>2012-01-15T13:24:02Z</time>
      </trkpt>
      <trkpt lat="46.19053" lon="3.40597">
        <ele>247.4</ele>
        <time>2012-01-15T13:24:17Z</time>
      </trkpt>
      <trkpt lat="46.19044" lon="3.40618">
        <ele>246.5</ele>
        <time>2012-01-15T13:24:32Z</time>
      </trkpt>
      <trkpt lat="46.19036" lon="3.40638">
        <ele>246.7</ele>
        <time>2012-01-15T13:24:47Z</time>
      </trkpt>
      <trkpt lat="46.19026" lon="3.40654">
        <ele>246.4</ele>
        <time>2012-01-15T13:25:02Z</time>
      </trkpt>
      <trkpt lat="46.19014" lon="3.40674">
        <ele>246.2</ele>
        <time>2012-01-15T13:25:17Z</time>
      </trkpt>
      <trkpt lat="46.19005" lon="3.40697">
        <ele>247.7</ele>
        <time>2012-01-15T13:25:32Z</time>
      </trkpt>
      <trkpt lat="46.18997" lon="3.40717">
        <ele>248.6</ele>
        <time>2012-01-15T13:25:47Z</time>
      </trkpt>
      <trkpt lat="46.1899" lon="3.4074">
        <ele>247.5</ele>
        <time>2012-01-15T13:26:02Z</time>
      </trkpt>
      <trkpt lat="46.18975" lon="3.4076">
        <ele>246.7</ele>
        <time>2012-01-15T13:26:17Z</time>
      </trkpt>
      <trkpt lat="46.18958" lon="3.40757">
        <ele>246.2</ele>
        <time>2012-01-15T13:26:32Z</time>
      </trkpt>
      <trkpt lat="46.18947" lon="3.40741">
        <ele>246.1</ele>
        <time>2012-01-15T13:26:47Z</time>
      </trkpt>
      <trkpt lat="46.18935" lon="3.40719">
        <ele>245.8</ele>
        <time>2012-01-15T13:27:02Z</time>
      </trkpt>
      <trkpt lat="46.18917" lon="3.407">
        <ele>245.8</ele>
        <time>2012-01-15T13:27:17Z</time>
      </trkpt>
      <trkpt lat="46.189" lon="3.4069">
        <ele>246.2</ele>
        <time>2012-01-15T13:27:32Z</time>
      </trkpt>
      <trkpt lat="46.18883" lon="3.40677">
        <ele>246.5</ele>
        <time>2012-01-15T13:27:47Z</time>
      </trkpt>
      <trkpt lat="46.18866" lon="3.40665">
        <ele>246.2</ele>
        <time>2012-01-15T13:28:02Z</time>
      </trkpt>
      <trkpt lat="46.1885" lon="3.40654">
        <ele>246.3</ele>
        <time>2012-01-15T13:28:17Z</time>
      </trkpt>
      <trkpt lat="46.18836" lon="3.40643">
        <ele>246.1</ele>
        <time>2012-01-15T13:28:32Z</time>
      </trkpt>
      <trkpt lat="46.18816" lon="3.40626">
        <ele>246.6</ele>
        <time>2012-01-15T13:28:47Z</time>
      </trkpt>
      <trkpt lat="46.18798" lon="3.40627">
        <ele>246.3</ele>
        <time>2012-01-15T13:29:02Z</time>
      </trkpt>
      <trkpt lat="46.18794" lon="3.40636">
        <ele>246.1</ele>
        <time>2012-01-15T13:29:17Z</time>
      </trkpt>
      <trkpt lat="46.18786" lon="3.40661">
        <ele>246</ele>
        <time>2012-01-15T13:29:32Z</time>
      </trkpt>
      <trkpt lat="46.18776" lon="3.40688">
        <ele>246</ele>
        <time>2012-01-15T13:29:47Z</time>
      </trkpt>
      <trkpt lat="46.18765" lon="3.40711">
        <ele>246</ele>
        <time>2012-01-15T13:30:02Z</time>
      </trkpt>
      <trkpt lat="46.18758" lon="3.40737">
        <ele>246</ele>
        <time>2012-01-15T13:30:17Z</time>
      </trkpt>
      <trkpt lat="46.18751" lon="3.40758">
        <ele>246</ele>
        <time>2012-01-15T13:30:32Z</time>
      </trkpt>
      <trkpt lat="46.1874" lon="3.40785">
        <ele>246</ele>
        <time>2012-01-15T13:30:47Z</time>
      </trkpt>
      <trkpt lat="46.18731" lon="3.40808">
        <ele>245.9</ele>
        <time>2012-01-15T13:31:02Z</time>
      </trkpt>
      <trkpt lat="46.18723" lon="3.40829">
        <ele>245.2</ele>
        <time>2012-01-15T13:31:17Z</time>
      </trkpt>
      <trkpt lat="46.18715" lon="3.40839">
        <ele>244.7</ele>
        <time>2012-01-15T13:31:32Z</time>
      </trkpt>
      <trkpt lat="46.18713" lon="3.4084">
        <ele>244.7</ele>
        <time>2012-01-15T13:31:47Z</time>
      </trkpt>
      <trkpt lat="46.18707" lon="3.40826">
        <ele>244.7</ele>
        <time>2012-01-15T13:32:02Z</time>
      </trkpt>
      <trkpt lat="46.18691" lon="3.4082">
        <ele>244.3</ele>
        <time>2012-01-15T13:32:17Z</time>
      </trkpt>
      <trkpt lat="46.1868" lon="3.40825">
        <ele>244</ele>
        <time>2012-01-15T13:32:32Z</time>
      </trkpt>
      <trkpt lat="46.1866" lon="3.40844">
        <ele>244</ele>
        <time>2012-01-15T13:32:47Z</time>
      </trkpt>
      <trkpt lat="46.18647" lon="3.40846">
        <ele>244</ele>
        <time>2012-01-15T13:33:02Z</time>
      </trkpt>
      <trkpt lat="46.18634" lon="3.4087">
        <ele>244</ele>
        <time>2012-01-15T13:33:17Z</time>
      </trkpt>
      <trkpt lat="46.18634" lon="3.40886">
        <ele>244</ele>
        <time>2012-01-15T13:33:32Z</time>
      </trkpt>
      <trkpt lat="46.18624" lon="3.40914">
        <ele>244</ele>
        <time>2012-01-15T13:33:47Z</time>
      </trkpt>
      <trkpt lat="46.18621" lon="3.40935">
        <ele>244</ele>
        <time>2012-01-15T13:34:02Z</time>
      </trkpt>
      <trkpt lat="46.18615" lon="3.40952">
        <ele>244</ele>
        <time>2012-01-15T13:34:17Z</time>
      </trkpt>
      <trkpt lat="46.18614" lon="3.4098">
        <ele>244</ele>
        <time>2012-01-15T13:34:32Z</time>
      </trkpt>
      <trkpt lat="46.18618" lon="3.41004">
        <ele>244</ele>
        <time>2012-01-15T13:34:47Z</time>
      </trkpt>
      <trkpt lat="46.18613" lon="3.41034">
        <ele>244</ele>
        <time>2012-01-15T13:35:02Z</time>
      </trkpt>
      <trkpt lat="46.18611" lon="3.41062">
        <ele>244</ele>
        <time>2012-01-15T13:35:17Z</time>
      </trkpt>
      <trkpt lat="46.18614" lon="3.41091">
        <ele>244</ele>
        <time>2012-01-15T13:35:32Z</time>
      </trkpt>
      <trkpt lat="46.18609" lon="3.41116">
        <ele>244</ele>
        <time>2012-01-15T13:35:47Z</time>
      </trkpt>
      <trkpt lat="46.18605" lon="3.41138">
        <ele>244</ele>
        <time>2012-01-15T13:36:02Z</time>
      </trkpt>
      <trkpt lat="46.18601" lon="3.41149">
        <ele>244.1</ele>
        <time>2012-01-15T13:36:17Z</time>
      </trkpt>
      <trkpt lat="46.18592" lon="3.41173">
        <ele>244.5</ele>
        <time>2012-01-15T13:36:32Z</time>
      </trkpt>
      <trkpt lat="46.18588" lon="3.41184">
        <ele>244.3</ele>
        <time>2012-01-15T13:36:47Z</time>
      </trkpt>
      <trkpt lat="46.18581" lon="3.41201">
        <ele>244.1</ele>
        <time>2012-01-15T13:37:02Z</time>
      </trkpt>
      <trkpt lat="46.18582" lon="3.41214">
        <ele>244.1</ele>
        <time>2012-01-15T13:37:17Z</time>
      </trkpt>
      <trkpt lat="46.18572" lon="3.41249">
        <ele>244</ele>
        <time>2012-01-15T13:37:32Z</time>
      </trkpt>
      <trkpt lat="46.18563" lon="3.41237">
        <ele>244.4</ele>
        <time>2012-01-15T13:37:47Z</time>
      </trkpt>
      <trkpt lat="46.1855" lon="3.41209">
        <ele>244.6</ele>
        <time>2012-01-15T13:38:02Z</time>
      </trkpt>
      <trkpt lat="46.18542" lon="3.41201">
        <ele>244.3</ele>
        <time>2012-01-15T13:38:17Z</time>
      </trkpt>
      <trkpt lat="46.1853" lon="3.41176">
        <ele>244.1</ele>
        <time>2012-01-15T13:38:32Z</time>
      </trkpt>
      <trkpt lat="46.18505" lon="3.41142">
        <ele>244.8</ele>
        <time>2012-01-15T13:38:47Z</time>
      </trkpt>
      <trkpt lat="46.18498" lon="3.41123">
        <ele>244.9</ele>
        <time>2012-01-15T13:39:02Z</time>
      </trkpt>
      <trkpt lat="46.1849" lon="3.41114">
        <ele>244.9</ele>
        <time>2012-01-15T13:39:17Z</time>
      </trkpt>
      <trkpt lat="46.18475" lon="3.41087">
        <ele>245</ele>
        <time>2012-01-15T13:39:32Z</time>
      </trkpt>
      <trkpt lat="46.18464" lon="3.41085">
        <ele>245</ele>
        <time>2012-01-15T13:39:47Z</time>
      </trkpt>
      <trkpt lat="46.18452" lon="3.4107">
        <ele>245</ele>
        <time>2012-01-15T13:40:02Z</time>
      </trkpt>
      <trkpt lat="46.18441" lon="3.4106">
        <ele>244.8</ele>
        <time>2012-01-15T13:40:17Z</time>
      </trkpt>
      <trkpt lat="46.18428" lon="3.41042">
        <ele>244.7</ele>
        <time>2012-01-15T13:40:32Z</time>
      </trkpt>
      <trkpt lat="46.18406" lon="3.41027">
        <ele>244.6</ele>
        <time>2012-01-15T13:40:47Z</time>
      </trkpt>
      <trkpt lat="46.18392" lon="3.41019">
        <ele>244.4</ele>
        <time>2012-01-15T13:41:02Z</time>
      </trkpt>
      <trkpt lat="46.18373" lon="3.41018">
        <ele>244</ele>
        <time>2012-01-15T13:41:17Z</time>
      </trkpt>
      <trkpt lat="46.18355" lon="3.41017">
        <ele>243.5</ele>
        <time>2012-01-15T13:41:32Z</time>
      </trkpt>
      <trkpt lat="46.18341" lon="3.41016">
        <ele>243.1</ele>
        <time>2012-01-15T13:41:47Z</time>
      </trkpt>
      <trkpt lat="46.18326" lon="3.41011">
        <ele>243.4</ele>
        <time>2012-01-15T13:42:02Z</time>
      </trkpt>
      <trkpt lat="46.18311" lon="3.41012">
        <ele>243.6</ele>
        <time>2012-01-15T13:42:17Z</time>
      </trkpt>
      <trkpt lat="46.18297" lon="3.40997">
        <ele>244.7</ele>
        <time>2012-01-15T13:42:32Z</time>
      </trkpt>
      <trkpt lat="46.18272" lon="3.40996">
        <ele>243.9</ele>
        <time>2012-01-15T13:42:47Z</time>
      </trkpt>
      <trkpt lat="46.18258" lon="3.40991">
        <ele>243.7</ele>
        <time>2012-01-15T13:43:02Z</time>
      </trkpt>
      <trkpt lat="46.18255" lon="3.40993">
        <ele>243.6</ele>
        <time>2012-01-15T13:43:17Z</time>
      </trkpt>
      <trkpt lat="46.18237" lon="3.40991">
        <ele>243.7</ele>
        <time>2012-01-15T13:43:32Z</time>
      </trkpt>
      <trkpt lat="46.18224" lon="3.40977">
        <ele>244.7</ele>
        <time>2012-01-15T13:43:47Z</time>
      </trkpt>
      <trkpt lat="46.18208" lon="3.40977">
        <ele>244.7</ele>
        <time>2012-01-15T13:44:02Z</time>
      </trkpt>
      <trkpt lat="46.1819" lon="3.40976">
        <ele>244.7</ele>
        <time>2012-01-15T13:44:17Z</time>
      </trkpt>
      <trkpt lat="46.18174" lon="3.40969">
        <ele>245.1</ele>
        <time>2012-01-15T13:44:32Z</time>
      </trkpt>
      <trkpt lat="46.18158" lon="3.40965">
        <ele>244.7</ele>
        <time>2012-01-15T13:44:47Z</time>
      </trkpt>
      <trkpt lat="46.1814" lon="3.40955">
        <ele>244.3</ele>
        <time>2012-01-15T13:45:02Z</time>
      </trkpt>
      <trkpt lat="46.1812" lon="3.40959">
        <ele>244</ele>
        <time>2012-01-15T13:45:17Z</time>
      </trkpt>
      <trkpt lat="46.18098" lon="3.40949">
        <ele>244.6</ele>
        <time>2012-01-15T13:45:32Z</time>
      </trkpt>
      <trkpt lat="46.18072" lon="3.40954">
        <ele>244</ele>
        <time>2012-01-15T13:45:47Z</time>
      </trkpt>
      <trkpt lat="46.18055" lon="3.40951">
        <ele>244.3</ele>
        <time>2012-01-15T13:46:02Z</time>
      </trkpt>
      <trkpt lat="46.18038" lon="3.40956">
        <ele>243.8</ele>
        <time>2012-01-15T13:46:17Z</time>
      </trkpt>
      <trkpt lat="46.18023" lon="3.40948">
        <ele>244.6</ele>
        <time>2012-01-15T13:46:32Z</time>
      </trkpt>
      <trkpt lat="46.18" lon="3.40956">
        <ele>244.2</ele>
        <time>2012-01-15T13:46:47Z</time>
      </trkpt>
      <trkpt lat="46.17977" lon="3.40972">
        <ele>243.8</ele>
        <time>2012-01-15T13:47:02Z</time>
      </trkpt>
      <trkpt lat="46.17968" lon="3.40972">
        <ele>244.3</ele>
        <time>2012-01-15T13:47:17Z</time>
      </trkpt>
      <trkpt lat="46.1795" lon="3.4098">
        <ele>244.8</ele>
        <time>2012-01-15T13:47:32Z</time>
      </trkpt>
      <trkpt lat="46.17932" lon="3.40989">
        <ele>244.4</ele>
        <time>2012-01-15T13:47:47Z</time>
      </trkpt>
      <trkpt lat="46.17917" lon="3.40986">
        <ele>245</ele>
        <time>2012-01-15T13:48:02Z</time>
      </trkpt>
      <trkpt lat="46.17899" lon="3.40989">
        <ele>245.2</ele>
        <time>2012-01-15T13:48:17Z</time>
      </trkpt>
      <trkpt lat="46.1788" lon="3.40985">
        <ele>245.7</ele>
        <time>2012-01-15T13:48:32Z</time>
      </trkpt>
      <trkpt lat="46.17868" lon="3.40986">
        <ele>245.9</ele>
        <time>2012-01-15T13:48:47Z</time>
      </trkpt>
      <trkpt lat="46.17869" lon="3.40987">
        <ele>245.9</ele>
        <time>2012-01-15T13:49:02Z</time>
      </trkpt>
      <trkpt lat="46.17867" lon="3.40988">
        <ele>245.9</ele>
        <time>2012-01-15T13:49:17Z</time>
      </trkpt>
      <trkpt lat="46.17853" lon="3.40983">
        <ele>246</ele>
        <time>2012-01-15T13:49:32Z</time>
      </trkpt>
      <trkpt lat="46.17837" lon="3.40984">
        <ele>246</ele>
        <time>2012-01-15T13:49:47Z</time>
      </trkpt>
      <trkpt lat="46.17822" lon="3.41002">
        <ele>245.9</ele>
        <time>2012-01-15T13:50:02Z</time>
      </trkpt>
      <trkpt lat="46.17807" lon="3.41014">
        <ele>246</ele>
        <time>2012-01-15T13:50:17Z</time>
      </trkpt>
      <trkpt lat="46.17788" lon="3.41031">
        <ele>245.9</ele>
        <time>2012-01-15T13:50:32Z</time>
      </trkpt>
      <trkpt lat="46.17775" lon="3.41038">
        <ele>246</ele>
        <time>2012-01-15T13:50:47Z</time>
      </trkpt>
      <trkpt lat="46.17758" lon="3.41049">
        <ele>246</ele>
        <time>2012-01-15T13:51:02Z</time>
      </trkpt>
      <trkpt lat="46.17744" lon="3.41066">
        <ele>246</ele>
        <time>2012-01-15T13:51:17Z</time>
      </trkpt>
      <trkpt lat="46.17737" lon="3.41091">
        <ele>245.4</ele>
        <time>2012-01-15T13:51:32Z</time>
      </trkpt>
      <trkpt lat="46.17728" lon="3.41105">
        <ele>244.9</ele>
        <time>2012-01-15T13:51:47Z</time>
      </trkpt>
      <trkpt lat="46.17713" lon="3.41111">
        <ele>245</ele>
        <time>2012-01-15T13:52:02Z</time>
      </trkpt>
      <trkpt lat="46.17697" lon="3.41123">
        <ele>244.1</ele>
        <time>2012-01-15T13:52:17Z</time>
      </trkpt>
      <trkpt lat="46.17684" lon="3.41134">
        <ele>244</ele>
        <time>2012-01-15T13:52:32Z</time>
      </trkpt>
      <trkpt lat="46.17663" lon="3.41137">
        <ele>245</ele>
        <time>2012-01-15T13:52:47Z</time>
      </trkpt>
      <trkpt lat="46.17652" lon="3.41148">
        <ele>244.2</ele>
        <time>2012-01-15T13:53:02Z</time>
      </trkpt>
      <trkpt lat="46.17642" lon="3.41152">
        <ele>244</ele>
        <time>2012-01-15T13:53:17Z</time>
      </trkpt>
      <trkpt lat="46.17622" lon="3.41165">
        <ele>243.7</ele>
        <time>2012-01-15T13:53:32Z</time>
      </trkpt>
      <trkpt lat="46.176" lon="3.41172">
        <ele>243.9</ele>
        <time>2012-01-15T13:53:47Z</time>
      </trkpt>
      <trkpt lat="46.17579" lon="3.41173">
        <ele>244.4</ele>
        <time>2012-01-15T13:54:02Z</time>
      </trkpt>
      <trkpt lat="46.17564" lon="3.41184">
        <ele>244</ele>
        <time>2012-01-15T13:54:17Z</time>
      </trkpt>
      <trkpt lat="46.1755" lon="3.41184">
        <ele>244.5</ele>
        <time>2012-01-15T13:54:32Z</time>
      </trkpt>
      <trkpt lat="46.17542" lon="3.41188">
        <ele>244.9</ele>
        <time>2012-01-15T13:54:47Z</time>
      </trkpt>
      <trkpt lat="46.17524" lon="3.41191">
        <ele>245.7</ele>
        <time>2012-01-15T13:55:02Z</time>
      </trkpt>
      <trkpt lat="46.17513" lon="3.41158">
        <ele>244.8</ele>
        <time>2012-01-15T13:55:17Z</time>
      </trkpt>
      <trkpt lat="46.17518" lon="3.41135">
        <ele>245.5</ele>
        <time>2012-01-15T13:55:32Z</time>
      </trkpt>
      <trkpt lat="46.17525" lon="3.41115">
        <ele>246</ele>
        <time>2012-01-15T13:55:47Z</time>
      </trkpt>
      <trkpt lat="46.17514" lon="3.41104">
        <ele>246.6</ele>
        <time>2012-01-15T13:56:02Z</time>
      </trkpt>
      <trkpt lat="46.17498" lon="3.41101">
        <ele>246.8</ele>
        <time>2012-01-15T13:56:17Z</time>
      </trkpt>
      <trkpt lat="46.1749" lon="3.4108">
        <ele>246.2</ele>
        <time>2012-01-15T13:56:32Z</time>
      </trkpt>
      <trkpt lat="46.17468" lon="3.41068">
        <ele>245.6</ele>
        <time>2012-01-15T13:56:47Z</time>
      </trkpt>
      <trkpt lat="46.17461" lon="3.41085">
        <ele>245.4</ele>
        <time>2012-01-15T13:57:02Z</time>
      </trkpt>
      <trkpt lat="46.17454" lon="3.41108">
        <ele>245.4</ele>
        <time>2012-01-15T13:57:17Z</time>
      </trkpt>
      <trkpt lat="46.1746" lon="3.41131">
        <ele>245.7</ele>
        <time>2012-01-15T13:57:32Z</time>
      </trkpt>
      <trkpt lat="46.17464" lon="3.4117">
        <ele>245.3</ele>
        <time>2012-01-15T13:57:47Z</time>
      </trkpt>
      <trkpt lat="46.17461" lon="3.41192">
        <ele>245.8</ele>
        <time>2012-01-15T13:58:02Z</time>
      </trkpt>
      <trkpt lat="46.17447" lon="3.41214">
        <ele>246.2</ele>
        <time>2012-01-15T13:58:17Z</time>
      </trkpt>
      <trkpt lat="46.17428" lon="3.41235">
        <ele>245.7</ele>
        <time>2012-01-15T13:58:32Z</time>
      </trkpt>
      <trkpt lat="46.17415" lon="3.41231">
        <ele>246</ele>
        <time>2012-01-15T13:58:47Z</time>
      </trkpt>
      <trkpt lat="46.17403" lon="3.41221">
        <ele>246</ele>
        <time>2012-01-15T13:59:02Z</time>
      </trkpt>
      <trkpt lat="46.17384" lon="3.41236">
        <ele>246.6</ele>
        <time>2012-01-15T13:59:17Z</time>
      </trkpt>
      <trkpt lat="46.17378" lon="3.41257">
        <ele>246.8</ele>
        <time>2012-01-15T13:59:32Z</time>
      </trkpt>
      <trkpt lat="46.17367" lon="3.41276">
        <ele>246.8</ele>
        <time>2012-01-15T13:59:47Z</time>
      </trkpt>
      <trkpt lat="46.17352" lon="3.41294">
        <ele>246.2</ele>
        <time>2012-01-15T14:00:02Z</time>
      </trkpt>
      <trkpt lat="46.17337" lon="3.41316">
        <ele>246.3</ele>
        <time>2012-01-15T14:00:17Z</time>
      </trkpt>
      <trkpt lat="46.17327" lon="3.41335">
        <ele>245.9</ele>
        <time>2012-01-15T14:00:32Z</time>
      </trkpt>
      <trkpt lat="46.1731" lon="3.41352">
        <ele>245.6</ele>
        <time>2012-01-15T14:00:47Z</time>
      </trkpt>
      <trkpt lat="46.17295" lon="3.41365">
        <ele>246</ele>
        <time>2012-01-15T14:01:02Z</time>
      </trkpt>
      <trkpt lat="46.17277" lon="3.41382">
        <ele>246.3</ele>
        <time>2012-01-15T14:01:17Z</time>
      </trkpt>
      <trkpt lat="46.1726" lon="3.41398">
        <ele>245.8</ele>
        <time>2012-01-15T14:01:32Z</time>
      </trkpt>
      <trkpt lat="46.17248" lon="3.41411">
        <ele>245.5</ele>
        <time>2012-01-15T14:01:47Z</time>
      </trkpt>
      <trkpt lat="46.17235" lon="3.41422">
        <ele>245.3</ele>
        <time>2012-01-15T14:02:02Z</time>
      </trkpt>
      <trkpt lat="46.17218" lon="3.41438">
        <ele>245.4</ele>
        <time>2012-01-15T14:02:17Z</time>
      </trkpt>
      <trkpt lat="46.17203" lon="3.41444">
        <ele>245.7</ele>
        <time>2012-01-15T14:02:32Z</time>
      </trkpt>
      <trkpt lat="46.1719" lon="3.41458">
        <ele>245.8</ele>
        <time>2012-01-15T14:02:47Z</time>
      </trkpt>
      <trkpt lat="46.17175" lon="3.41468">
        <ele>246.5</ele>
        <time>2012-01-15T14:03:02Z</time>
      </trkpt>
      <trkpt lat="46.1716" lon="3.41469">
        <ele>247</ele>
        <time>2012-01-15T14:03:17Z</time>
      </trkpt>
      <trkpt lat="46.17142" lon="3.41473">
        <ele>247</ele>
        <time>2012-01-15T14:03:32Z</time>
      </trkpt>
      <trkpt lat="46.17125" lon="3.41484">
        <ele>246.8</ele>
        <time>2012-01-15T14:03:47Z</time>
      </trkpt>
      <trkpt lat="46.17107" lon="3.41491">
        <ele>247</ele>
        <time>2012-01-15T14:04:02Z</time>
      </trkpt>
      <trkpt lat="46.1709" lon="3.41506">
        <ele>246.8</ele>
        <time>2012-01-15T14:04:17Z</time>
      </trkpt>
      <trkpt lat="46.17071" lon="3.41516">
        <ele>246.4</ele>
        <time>2012-01-15T14:04:32Z</time>
      </trkpt>
      <trkpt lat="46.17053" lon="3.41517">
        <ele>246.4</ele>
        <time>2012-01-15T14:04:47Z</time>
      </trkpt>
      <trkpt lat="46.17034" lon="3.41524">
        <ele>246.1</ele>
        <time>2012-01-15T14:05:02Z</time>
      </trkpt>
      <trkpt lat="46.1702" lon="3.41537">
        <ele>246.2</ele>
        <time>2012-01-15T14:05:17Z</time>
      </trkpt>
      <trkpt lat="46.17005" lon="3.41555">
        <ele>246.2</ele>
        <time>2012-01-15T14:05:32Z</time>
      </trkpt>
      <trkpt lat="46.1699" lon="3.41561">
        <ele>246.3</ele>
        <time>2012-01-15T14:05:47Z</time>
      </trkpt>
      <trkpt lat="46.16968" lon="3.41577">
        <ele>246.4</ele>
        <time>2012-01-15T14:06:02Z</time>
      </trkpt>
      <trkpt lat="46.16954" lon="3.41569">
        <ele>246.8</ele>
        <time>2012-01-15T14:06:17Z</time>
      </trkpt>
      <trkpt lat="46.16936" lon="3.41568">
        <ele>247</ele>
        <time>2012-01-15T14:06:32Z</time>
      </trkpt>
      <trkpt lat="46.16928" lon="3.4157">
        <ele>247</ele>
        <time>2012-01-15T14:06:47Z</time>
      </trkpt>
      <trkpt lat="46.16928" lon="3.41576">
        <ele>247</ele>
        <time>2012-01-15T14:07:02Z</time>
      </trkpt>
      <trkpt lat="46.16923" lon="3.41568">
        <ele>247</ele>
        <time>2012-01-15T14:07:17Z</time>
      </trkpt>
      <trkpt lat="46.16906" lon="3.41556">
        <ele>247</ele>
        <time>2012-01-15T14:07:32Z</time>
      </trkpt>
      <trkpt lat="46.16887" lon="3.41544">
        <ele>247</ele>
        <time>2012-01-15T14:07:47Z</time>
      </trkpt>
      <trkpt lat="46.1687" lon="3.41534">
        <ele>247</ele>
        <time>2012-01-15T14:08:02Z</time>
      </trkpt>
      <trkpt lat="46.1685" lon="3.41532">
        <ele>247</ele>
        <time>2012-01-15T14:08:17Z</time>
      </trkpt>
      <trkpt lat="46.16831" lon="3.41526">
        <ele>247</ele>
        <time>2012-01-15T14:08:32Z</time>
      </trkpt>
      <trkpt lat="46.16812" lon="3.41518">
        <ele>247.3</ele>
        <time>2012-01-15T14:08:47Z</time>
      </trkpt>
      <trkpt lat="46.16796" lon="3.41509">
        <ele>247.4</ele>
        <time>2012-01-15T14:09:02Z</time>
      </trkpt>
      <trkpt lat="46.1678" lon="3.41492">
        <ele>247</ele>
        <time>2012-01-15T14:09:17Z</time>
      </trkpt>
      <trkpt lat="46.16767" lon="3.41474">
        <ele>247</ele>
        <time>2012-01-15T14:09:32Z</time>
      </trkpt>
      <trkpt lat="46.16753" lon="3.41453">
        <ele>247</ele>
        <time>2012-01-15T14:09:47Z</time>
      </trkpt>
      <trkpt lat="46.16737" lon="3.4143">
        <ele>247</ele>
        <time>2012-01-15T14:10:02Z</time>
      </trkpt>
      <trkpt lat="46.16719" lon="3.41412">
        <ele>247</ele>
        <time>2012-01-15T14:10:17Z</time>
      </trkpt>
      <trkpt lat="46.16709" lon="3.41392">
        <ele>247</ele>
        <time>2012-01-15T14:10:32Z</time>
      </trkpt>
      <trkpt lat="46.167" lon="3.41371">
        <ele>247</ele>
        <time>2012-01-15T14:10:47Z</time>
      </trkpt>
      <trkpt lat="46.16694" lon="3.41342">
        <ele>247</ele>
        <time>2012-01-15T14:11:02Z</time>
      </trkpt>
      <trkpt lat="46.16689" lon="3.4132">
        <ele>247</ele>
        <time>2012-01-15T14:11:17Z</time>
      </trkpt>
      <trkpt lat="46.16678" lon="3.41301">
        <ele>247</ele>
        <time>2012-01-15T14:11:32Z</time>
      </trkpt>
      <trkpt lat="46.16664" lon="3.4128">
        <ele>246.9</ele>
        <time>2012-01-15T14:11:47Z</time>
      </trkpt>
      <trkpt lat="46.16666" lon="3.41255">
        <ele>247</ele>
        <time>2012-01-15T14:12:02Z</time>
      </trkpt>
      <trkpt lat="46.16665" lon="3.4124">
        <ele>247</ele>
        <time>2012-01-15T14:12:17Z</time>
      </trkpt>
      <trkpt lat="46.16648" lon="3.4122">
        <ele>247</ele>
        <time>2012-01-15T14:12:32Z</time>
      </trkpt>
      <trkpt lat="46.16631" lon="3.41209">
        <ele>246.7</ele>
        <time>2012-01-15T14:12:47Z</time>
      </trkpt>
      <trkpt lat="46.16625" lon="3.41187">
        <ele>246.5</ele>
        <time>2012-01-15T14:13:02Z</time>
      </trkpt>
      <trkpt lat="46.16609" lon="3.4118">
        <ele>245.8</ele>
        <time>2012-01-15T14:13:17Z</time>
      </trkpt>
      <trkpt lat="46.16608" lon="3.41159">
        <ele>246</ele>
        <time>2012-01-15T14:13:32Z</time>
      </trkpt>
      <trkpt lat="46.166" lon="3.41131">
        <ele>246.2</ele>
        <time>2012-01-15T14:13:47Z</time>
      </trkpt>
      <trkpt lat="46.16596" lon="3.41114">
        <ele>245.9</ele>
        <time>2012-01-15T14:14:02Z</time>
      </trkpt>
      <trkpt lat="46.16594" lon="3.41083">
        <ele>245.8</ele>
        <time>2012-01-15T14:14:17Z</time>
      </trkpt>
      <trkpt lat="46.16591" lon="3.41057">
        <ele>245.5</ele>
        <time>2012-01-15T14:14:32Z</time>
      </trkpt>
      <trkpt lat="46.16582" lon="3.41032">
        <ele>245.8</ele>
        <time>2012-01-15T14:14:47Z</time>
      </trkpt>
      <trkpt lat="46.16577" lon="3.41007">
        <ele>246.3</ele>
        <time>2012-01-15T14:15:02Z</time>
      </trkpt>
      <trkpt lat="46.16566" lon="3.40981">
        <ele>245.7</ele>
        <time>2012-01-15T14:15:17Z</time>
      </trkpt>
      <trkpt lat="46.16561" lon="3.4096">
        <ele>245.4</ele>
        <time>2012-01-15T14:15:32Z</time>
      </trkpt>
      <trkpt lat="46.16555" lon="3.4094">
        <ele>245</ele>
        <time>2012-01-15T14:15:47Z</time>
      </trkpt>
      <trkpt lat="46.16551" lon="3.40918">
        <ele>245</ele>
        <time>2012-01-15T14:16:02Z</time>
      </trkpt>
      <trkpt lat="46.16546" lon="3.40894">
        <ele>246.3</ele>
        <time>2012-01-15T14:16:17Z</time>
      </trkpt>
      <trkpt lat="46.16544" lon="3.40871">
        <ele>246.3</ele>
        <time>2012-01-15T14:16:32Z</time>
      </trkpt>
      <trkpt lat="46.16538" lon="3.40847">
        <ele>245.7</ele>
        <time>2012-01-15T14:16:47Z</time>
      </trkpt>
      <trkpt lat="46.16537" lon="3.40826">
        <ele>245.9</ele>
        <time>2012-01-15T14:17:02Z</time>
      </trkpt>
      <trkpt lat="46.16527" lon="3.40798">
        <ele>246.2</ele>
        <time>2012-01-15T14:17:17Z</time>
      </trkpt>
      <trkpt lat="46.16518" lon="3.40781">
        <ele>246.2</ele>
        <time>2012-01-15T14:17:32Z</time>
      </trkpt>
      <trkpt lat="46.16507" lon="3.40762">
        <ele>245.7</ele>
        <time>2012-01-15T14:17:47Z</time>
      </trkpt>
      <trkpt lat="46.16496" lon="3.40737">
        <ele>246.2</ele>
        <time>2012-01-15T14:18:02Z</time>
      </trkpt>
      <trkpt lat="46.16481" lon="3.40727">
        <ele>245.8</ele>
        <time>2012-01-15T14:18:17Z</time>
      </trkpt>
      <trkpt lat="46.16471" lon="3.40712">
        <ele>245.3</ele>
        <time>2012-01-15T14:18:32Z</time>
      </trkpt>
      <trkpt lat="46.16467" lon="3.40694">
        <ele>245.4</ele>
        <time>2012-01-15T14:18:47Z</time>
      </trkpt>
      <trkpt lat="46.1647" lon="3.40681">
        <ele>246.7</ele>
        <time>2012-01-15T14:19:02Z</time>
      </trkpt>
      <trkpt lat="46.16461" lon="3.40661">
        <ele>247.1</ele>
        <time>2012-01-15T14:19:17Z</time>
      </trkpt>
      <trkpt lat="46.16456" lon="3.40648">
        <ele>247.7</ele>
        <time>2012-01-15T14:19:32Z</time>
      </trkpt>
      <trkpt lat="46.16443" lon="3.40629">
        <ele>248.2</ele>
        <time>2012-01-15T14:19:47Z</time>
      </trkpt>
      <trkpt lat="46.16447" lon="3.40625">
        <ele>248.6</ele>
        <time>2012-01-15T14:20:02Z</time>
      </trkpt>
      <trkpt lat="46.16438" lon="3.4062">
        <ele>247.5</ele>
        <time>2012-01-15T14:20:17Z</time>
      </trkpt>
      <trkpt lat="46.16428" lon="3.40602">
        <ele>246.7</ele>
        <time>2012-01-15T14:20:32Z</time>
      </trkpt>
      <trkpt lat="46.16419" lon="3.40579">
        <ele>248.1</ele>
        <time>2012-01-15T14:20:47Z</time>
      </trkpt>
      <trkpt lat="46.16413" lon="3.40558">
        <ele>247.5</ele>
        <time>2012-01-15T14:21:02Z</time>
      </trkpt>
      <trkpt lat="46.16399" lon="3.40535">
        <ele>247.3</ele>
        <time>2012-01-15T14:21:17Z</time>
      </trkpt>
      <trkpt lat="46.16394" lon="3.40513">
        <ele>248</ele>
        <time>2012-01-15T14:21:32Z</time>
      </trkpt>
      <trkpt lat="46.16378" lon="3.40492">
        <ele>247.2</ele>
        <time>2012-01-15T14:21:47Z</time>
      </trkpt>
      <trkpt lat="46.16368" lon="3.40477">
        <ele>247.6</ele>
        <time>2012-01-15T14:22:02Z</time>
      </trkpt>
      <trkpt lat="46.16352" lon="3.40457">
        <ele>247.4</ele>
        <time>2012-01-15T14:22:17Z</time>
      </trkpt>
      <trkpt lat="46.1634" lon="3.40445">
        <ele>247.9</ele>
        <time>2012-01-15T14:22:32Z</time>
      </trkpt>
      <trkpt lat="46.16329" lon="3.4043">
        <ele>247.6</ele>
        <time>2012-01-15T14:22:47Z</time>
      </trkpt>
      <trkpt lat="46.16312" lon="3.40419">
        <ele>247.1</ele>
        <time>2012-01-15T14:23:02Z</time>
      </trkpt>
      <trkpt lat="46.16298" lon="3.40401">
        <ele>247.2</ele>
        <time>2012-01-15T14:23:17Z</time>
      </trkpt>
      <trkpt lat="46.16283" lon="3.40389">
        <ele>248</ele>
        <time>2012-01-15T14:23:32Z</time>
      </trkpt>
      <trkpt lat="46.16267" lon="3.40374">
        <ele>247.3</ele>
        <time>2012-01-15T14:23:47Z</time>
      </trkpt>
      <trkpt lat="46.16249" lon="3.40365">
        <ele>247.4</ele>
        <time>2012-01-15T14:24:02Z</time>
      </trkpt>
      <trkpt lat="46.16233" lon="3.40355">
        <ele>246.7</ele>
        <time>2012-01-15T14:24:17Z</time>
      </trkpt>
      <trkpt lat="46.16218" lon="3.40341">
        <ele>247.8</ele>
        <time>2012-01-15T14:24:32Z</time>
      </trkpt>
      <trkpt lat="46.16205" lon="3.40333">
        <ele>248.4</ele>
        <time>2012-01-15T14:24:47Z</time>
      </trkpt>
      <trkpt lat="46.16186" lon="3.40326">
        <ele>247.6</ele>
        <time>2012-01-15T14:25:02Z</time>
      </trkpt>
      <trkpt lat="46.16173" lon="3.40318">
        <ele>247.8</ele>
        <time>2012-01-15T14:25:17Z</time>
      </trkpt>
      <trkpt lat="46.16154" lon="3.40312">
        <ele>248.2</ele>
        <time>2012-01-15T14:25:32Z</time>
      </trkpt>
      <trkpt lat="46.16139" lon="3.40311">
        <ele>248.2</ele>
        <time>2012-01-15T14:25:47Z</time>
      </trkpt>
      <trkpt lat="46.16122" lon="3.40307">
        <ele>248.8</ele>
        <time>2012-01-15T14:26:02Z</time>
      </trkpt>
      <trkpt lat="46.16111" lon="3.40304">
        <ele>249</ele>
        <time>2012-01-15T14:26:17Z</time>
      </trkpt>
      <trkpt lat="46.16095" lon="3.40303">
        <ele>249</ele>
        <time>2012-01-15T14:26:32Z</time>
      </trkpt>
      <trkpt lat="46.16079" lon="3.40306">
        <ele>249</ele>
        <time>2012-01-15T14:26:47Z</time>
      </trkpt>
      <trkpt lat="46.16055" lon="3.4031">
        <ele>248.4</ele>
        <time>2012-01-15T14:27:02Z</time>
      </trkpt>
      <trkpt lat="46.16041" lon="3.40311">
        <ele>248.3</ele>
        <time>2012-01-15T14:27:17Z</time>
      </trkpt>
      <trkpt lat="46.16027" lon="3.4031">
        <ele>248.5</ele>
        <time>2012-01-15T14:27:32Z</time>
      </trkpt>
      <trkpt lat="46.16008" lon="3.40311">
        <ele>248.5</ele>
        <time>2012-01-15T14:27:47Z</time>
      </trkpt>
      <trkpt lat="46.15991" lon="3.40306">
        <ele>249</ele>
        <time>2012-01-15T14:28:02Z</time>
      </trkpt>
      <trkpt lat="46.15971" lon="3.40303">
        <ele>249</ele>
        <time>2012-01-15T14:28:17Z</time>
      </trkpt>
      <trkpt lat="46.15954" lon="3.40309">
        <ele>248.7</ele>
        <time>2012-01-15T14:28:32Z</time>
      </trkpt>
      <trkpt lat="46.15937" lon="3.40315">
        <ele>248.4</ele>
        <time>2012-01-15T14:28:47Z</time>
      </trkpt>
      <trkpt lat="46.15924" lon="3.40317">
        <ele>248.5</ele>
        <time>2012-01-15T14:29:02Z</time>
      </trkpt>
      <trkpt lat="46.15926" lon="3.40311">
        <ele>248.7</ele>
        <time>2012-01-15T14:29:17Z</time>
      </trkpt>
      <trkpt lat="46.15921" lon="3.40314">
        <ele>248.7</ele>
        <time>2012-01-15T14:29:32Z</time>
      </trkpt>
      <trkpt lat="46.15916" lon="3.40318">
        <ele>248.5</ele>
        <time>2012-01-15T14:29:47Z</time>
      </trkpt>
      <trkpt lat="46.15899" lon="3.40317">
        <ele>246.9</ele>
        <time>2012-01-15T14:30:02Z</time>
      </trkpt>
      <trkpt lat="46.15887" lon="3.40305">
        <ele>246.2</ele>
        <time>2012-01-15T14:30:17Z</time>
      </trkpt>
      <trkpt lat="46.15881" lon="3.40296">
        <ele>246.9</ele>
        <time>2012-01-15T14:30:32Z</time>
      </trkpt>
      <trkpt lat="46.15879" lon="3.40293">
        <ele>247.1</ele>
        <time>2012-01-15T14:30:47Z</time>
      </trkpt>
      <trkpt lat="46.15878" lon="3.40295">
        <ele>247.1</ele>
        <time>2012-01-15T14:31:02Z</time>
      </trkpt>
      <trkpt lat="46.15877" lon="3.40303">
        <ele>247.3</ele>
        <time>2012-01-15T14:31:17Z</time>
      </trkpt>
      <trkpt lat="46.15876" lon="3.40287">
        <ele>247.4</ele>
        <time>2012-01-15T14:31:32Z</time>
      </trkpt>
      <trkpt lat="46.1588" lon="3.40264">
        <ele>247.3</ele>
        <time>2012-01-15T14:31:47Z</time>
      </trkpt>
      <trkpt lat="46.15882" lon="3.4025">
        <ele>247.5</ele>
        <time>2012-01-15T14:32:02Z</time>
      </trkpt>
      <trkpt lat="46.15885" lon="3.40233">
        <ele>247.3</ele>
        <time>2012-01-15T14:32:17Z</time>
      </trkpt>
      <trkpt lat="46.15886" lon="3.40207">
        <ele>247.7</ele>
        <time>2012-01-15T14:32:32Z</time>
      </trkpt>
      <trkpt lat="46.15889" lon="3.40184">
        <ele>248</ele>
        <time>2012-01-15T14:32:47Z</time>
      </trkpt>
      <trkpt lat="46.15895" lon="3.40168">
        <ele>248.2</ele>
        <time>2012-01-15T14:33:02Z</time>
      </trkpt>
      <trkpt lat="46.15896" lon="3.40145">
        <ele>248.8</ele>
        <time>2012-01-15T14:33:17Z</time>
      </trkpt>
      <trkpt lat="46.15904" lon="3.40123">
        <ele>248.7</ele>
        <time>2012-01-15T14:33:32Z</time>
      </trkpt>
      <trkpt lat="46.15899" lon="3.40102">
        <ele>248.5</ele>
        <time>2012-01-15T14:33:47Z</time>
      </trkpt>
      <trkpt lat="46.15895" lon="3.40085">
        <ele>248.6</ele>
        <time>2012-01-15T14:34:02Z</time>
      </trkpt>
      <trkpt lat="46.15903" lon="3.40082">
        <ele>248.1</ele>
        <time>2012-01-15T14:34:17Z</time>
      </trkpt>
      <trkpt lat="46.15913" lon="3.40074">
        <ele>247.9</ele>
        <time>2012-01-15T14:34:32Z</time>
      </trkpt>
      <trkpt lat="46.15919" lon="3.40053">
        <ele>249</ele>
        <time>2012-01-15T14:34:47Z</time>
      </trkpt>
      <trkpt lat="46.15924" lon="3.40031">
        <ele>249</ele>
        <time>2012-01-15T14:35:02Z</time>
      </trkpt>
      <trkpt lat="46.15925" lon="3.40007">
        <ele>249</ele>
        <time>2012-01-15T14:35:17Z</time>
      </trkpt>
      <trkpt lat="46.15931" lon="3.39982">
        <ele>249</ele>
        <time>2012-01-15T14:35:32Z</time>
      </trkpt>
      <trkpt lat="46.15922" lon="3.39958">
        <ele>249.5</ele>
        <time>2012-01-15T14:35:47Z</time>
      </trkpt>
      <trkpt lat="46.15914" lon="3.39933">
        <ele>250</ele>
        <time>2012-01-15T14:36:02Z</time>
      </trkpt>
      <trkpt lat="46.15909" lon="3.39912">
        <ele>250.1</ele>
        <time>2012-01-15T14:36:17Z</time>
      </trkpt>
      <trkpt lat="46.15898" lon="3.39888">
        <ele>250.4</ele>
        <time>2012-01-15T14:36:32Z</time>
      </trkpt>
      <trkpt lat="46.15895" lon="3.39868">
        <ele>252.3</ele>
        <time>2012-01-15T14:36:47Z</time>
      </trkpt>
      <trkpt lat="46.15892" lon="3.39847">
        <ele>254.1</ele>
        <time>2012-01-15T14:37:02Z</time>
      </trkpt>
      <trkpt lat="46.15893" lon="3.39829">
        <ele>255.2</ele>
        <time>2012-01-15T14:37:17Z</time>
      </trkpt>
      <trkpt lat="46.15893" lon="3.39806">
        <ele>256</ele>
        <time>2012-01-15T14:37:32Z</time>
      </trkpt>
      <trkpt lat="46.15884" lon="3.39783">
        <ele>257.8</ele>
        <time>2012-01-15T14:37:47Z</time>
      </trkpt>
      <trkpt lat="46.15881" lon="3.39761">
        <ele>258.9</ele>
        <time>2012-01-15T14:38:02Z</time>
      </trkpt>
      <trkpt lat="46.15882" lon="3.39739">
        <ele>259.5</ele>
        <time>2012-01-15T14:38:17Z</time>
      </trkpt>
      <trkpt lat="46.1588" lon="3.39713">
        <ele>260</ele>
        <time>2012-01-15T14:38:32Z</time>
      </trkpt>
      <trkpt lat="46.15877" lon="3.39685">
        <ele>260</ele>
        <time>2012-01-15T14:38:47Z</time>
      </trkpt>
      <trkpt lat="46.1588" lon="3.39669">
        <ele>260</ele>
        <time>2012-01-15T14:39:02Z</time>
      </trkpt>
      <trkpt lat="46.15877" lon="3.39641">
        <ele>260.9</ele>
        <time>2012-01-15T14:39:17Z</time>
      </trkpt>
      <trkpt lat="46.15875" lon="3.39622">
        <ele>261</ele>
        <time>2012-01-15T14:39:32Z</time>
      </trkpt>
      <trkpt lat="46.15865" lon="3.39584">
        <ele>260.9</ele>
        <time>2012-01-15T14:39:47Z</time>
      </trkpt>
      <trkpt lat="46.1587" lon="3.3957">
        <ele>260.8</ele>
        <time>2012-01-15T14:40:02Z</time>
      </trkpt>
      <trkpt lat="46.15869" lon="3.39546">
        <ele>261</ele>
        <time>2012-01-15T14:40:17Z</time>
      </trkpt>
      <trkpt lat="46.15887" lon="3.39535">
        <ele>261</ele>
        <time>2012-01-15T14:40:32Z</time>
      </trkpt>
      <trkpt lat="46.15909" lon="3.39523">
        <ele>261</ele>
        <time>2012-01-15T14:40:47Z</time>
      </trkpt>
      <trkpt lat="46.15925" lon="3.39524">
        <ele>261</ele>
        <time>2012-01-15T14:41:02Z</time>
      </trkpt>
      <trkpt lat="46.15949" lon="3.39512">
        <ele>261</ele>
        <time>2012-01-15T14:41:17Z</time>
      </trkpt>
      <trkpt lat="46.15957" lon="3.39508">
        <ele>261</ele>
        <time>2012-01-15T14:41:32Z</time>
      </trkpt>
      <trkpt lat="46.15974" lon="3.39505">
        <ele>261</ele>
        <time>2012-01-15T14:41:47Z</time>
      </trkpt>
      <trkpt lat="46.15992" lon="3.39498">
        <ele>261</ele>
        <time>2012-01-15T14:42:02Z</time>
      </trkpt>
      <trkpt lat="46.16004" lon="3.39497">
        <ele>260.9</ele>
        <time>2012-01-15T14:42:17Z</time>
      </trkpt>
      <trkpt lat="46.1602" lon="3.39488">
        <ele>260.6</ele>
        <time>2012-01-15T14:42:32Z</time>
      </trkpt>
      <trkpt lat="46.16043" lon="3.39476">
        <ele>260.3</ele>
        <time>2012-01-15T14:42:47Z</time>
      </trkpt>
      <trkpt lat="46.16045" lon="3.39451">
        <ele>260.8</ele>
        <time>2012-01-15T14:43:02Z</time>
      </trkpt>
      <trkpt lat="46.16049" lon="3.39422">
        <ele>261</ele>
        <time>2012-01-15T14:43:17Z</time>
      </trkpt>
      <trkpt lat="46.16049" lon="3.39396">
        <ele>261</ele>
        <time>2012-01-15T14:43:32Z</time>
      </trkpt>
      <trkpt lat="46.16045" lon="3.39367">
        <ele>261</ele>
        <time>2012-01-15T14:43:47Z</time>
      </trkpt>
      <trkpt lat="46.16053" lon="3.39344">
        <ele>261</ele>
        <time>2012-01-15T14:44:02Z</time>
      </trkpt>
      <trkpt lat="46.16064" lon="3.39322">
        <ele>261</ele>
        <time>2012-01-15T14:44:17Z</time>
      </trkpt>
      <trkpt lat="46.1608" lon="3.39313">
        <ele>261</ele>
        <time>2012-01-15T14:44:32Z</time>
      </trkpt>
      <trkpt lat="46.16081" lon="3.39303">
        <ele>261</ele>
        <time>2012-01-15T14:44:47Z</time>
      </trkpt>
      <trkpt lat="46.16092" lon="3.39293">
        <ele>261</ele>
        <time>2012-01-15T14:45:02Z</time>
      </trkpt>
      <trkpt lat="46.1611" lon="3.39292">
        <ele>261</ele>
        <time>2012-01-15T14:45:17Z</time>
      </trkpt>
      <trkpt lat="46.16132" lon="3.39295">
        <ele>261</ele>
        <time>2012-01-15T14:45:32Z</time>
      </trkpt>
      <trkpt lat="46.16153" lon="3.39297">
        <ele>261</ele>
        <time>2012-01-15T14:45:47Z</time>
      </trkpt>
      <trkpt lat="46.16176" lon="3.39296">
        <ele>261</ele>
        <time>2012-01-15T14:46:02Z</time>
      </trkpt>
      <trkpt lat="46.16193" lon="3.393">
        <ele>261</ele>
        <time>2012-01-15T14:46:17Z</time>
      </trkpt>
      <trkpt lat="46.16213" lon="3.39301">
        <ele>260.4</ele>
        <time>2012-01-15T14:46:32Z</time>
      </trkpt>
      <trkpt lat="46.16238" lon="3.39302">
        <ele>260.1</ele>
        <time>2012-01-15T14:46:47Z</time>
      </trkpt>
      <trkpt lat="46.16255" lon="3.39306">
        <ele>260</ele>
        <time>2012-01-15T14:47:02Z</time>
      </trkpt>
      <trkpt lat="46.16274" lon="3.39305">
        <ele>260</ele>
        <time>2012-01-15T14:47:17Z</time>
      </trkpt>
      <trkpt lat="46.16295" lon="3.3931">
        <ele>259.8</ele>
        <time>2012-01-15T14:47:32Z</time>
      </trkpt>
      <trkpt lat="46.16311" lon="3.39325">
        <ele>258.6</ele>
        <time>2012-01-15T14:47:47Z</time>
      </trkpt>
      <trkpt lat="46.16324" lon="3.39335">
        <ele>257.9</ele>
        <time>2012-01-15T14:48:02Z</time>
      </trkpt>
      <trkpt lat="46.16347" lon="3.39342">
        <ele>257.3</ele>
        <time>2012-01-15T14:48:17Z</time>
      </trkpt>
      <trkpt lat="46.16364" lon="3.39358">
        <ele>256.5</ele>
        <time>2012-01-15T14:48:32Z</time>
      </trkpt>
      <trkpt lat="46.16366" lon="3.39373">
        <ele>255.8</ele>
        <time>2012-01-15T14:48:47Z</time>
      </trkpt>
      <trkpt lat="46.16383" lon="3.3939">
        <ele>253.7</ele>
        <time>2012-01-15T14:49:02Z</time>
      </trkpt>
      <trkpt lat="46.16389" lon="3.39392">
        <ele>253.3</ele>
        <time>2012-01-15T14:49:17Z</time>
      </trkpt>
      <trkpt lat="46.16407" lon="3.39409">
        <ele>255.1</ele>
        <time>2012-01-15T14:49:32Z</time>
      </trkpt>
      <trkpt lat="46.16426" lon="3.39421">
        <ele>256</ele>
        <time>2012-01-15T14:49:47Z</time>
      </trkpt>
      <trkpt lat="46.16443" lon="3.3943">
        <ele>256.4</ele>
        <time>2012-01-15T14:50:02Z</time>
      </trkpt>
      <trkpt lat="46.16458" lon="3.39439">
        <ele>257.3</ele>
        <time>2012-01-15T14:50:17Z</time>
      </trkpt>
      <trkpt lat="46.16472" lon="3.39447">
        <ele>258</ele>
        <time>2012-01-15T14:50:32Z</time>
      </trkpt>
      <trkpt lat="46.16492" lon="3.39453">
        <ele>258</ele>
        <time>2012-01-15T14:50:47Z</time>
      </trkpt>
      <trkpt lat="46.16509" lon="3.39454">
        <ele>258.1</ele>
        <time>2012-01-15T14:51:02Z</time>
      </trkpt>
      <trkpt lat="46.16529" lon="3.39457">
        <ele>258.5</ele>
        <time>2012-01-15T14:51:17Z</time>
      </trkpt>
      <trkpt lat="46.16546" lon="3.39458">
        <ele>258.8</ele>
        <time>2012-01-15T14:51:32Z</time>
      </trkpt>
      <trkpt lat="46.16568" lon="3.3946">
        <ele>259.4</ele>
        <time>2012-01-15T14:51:47Z</time>
      </trkpt>
      <trkpt lat="46.16586" lon="3.39463">
        <ele>260</ele>
        <time>2012-01-15T14:52:02Z</time>
      </trkpt>
      <trkpt lat="46.16605" lon="3.39467">
        <ele>260</ele>
        <time>2012-01-15T14:52:17Z</time>
      </trkpt>
      <trkpt lat="46.16623" lon="3.39461">
        <ele>260</ele>
        <time>2012-01-15T14:52:32Z</time>
      </trkpt>
      <trkpt lat="46.16625" lon="3.39459">
        <ele>260</ele>
        <time>2012-01-15T14:52:47Z</time>
      </trkpt>
      <trkpt lat="46.16621" lon="3.39461">
        <ele>260</ele>
        <time>2012-01-15T14:53:02Z</time>
      </trkpt>
      <trkpt lat="46.16622" lon="3.39461">
        <ele>260</ele>
        <time>2012-01-15T14:53:17Z</time>
      </trkpt>
      <trkpt lat="46.16625" lon="3.39453">
        <ele>260</ele>
        <time>2012-01-15T14:53:32Z</time>
      </trkpt>
      <trkpt lat="46.16634" lon="3.39432">
        <ele>259.6</ele>
        <time>2012-01-15T14:53:47Z</time>
      </trkpt>
      <trkpt lat="46.16643" lon="3.39409">
        <ele>259.4</ele>
        <time>2012-01-15T14:54:02Z</time>
      </trkpt>
      <trkpt lat="46.16652" lon="3.39381">
        <ele>260</ele>
        <time>2012-01-15T14:54:17Z</time>
      </trkpt>
      <trkpt lat="46.16662" lon="3.39359">
        <ele>260</ele>
        <time>2012-01-15T14:54:32Z</time>
      </trkpt>
      <trkpt lat="46.16672" lon="3.39338">
        <ele>260</ele>
        <time>2012-01-15T14:54:47Z</time>
      </trkpt>
      <trkpt lat="46.16678" lon="3.39321">
        <ele>260</ele>
        <time>2012-01-15T14:55:02Z</time>
      </trkpt>
      <trkpt lat="46.16684" lon="3.39305">
        <ele>260</ele>
        <time>2012-01-15T14:55:17Z</time>
      </trkpt>
      <trkpt lat="46.16692" lon="3.39285">
        <ele>260</ele>
        <time>2012-01-15T14:55:32Z</time>
      </trkpt>
      <trkpt lat="46.16702" lon="3.3926">
        <ele>260.2</ele>
        <time>2012-01-15T14:55:47Z</time>
      </trkpt>
      <trkpt lat="46.1671" lon="3.39233">
        <ele>261.5</ele>
        <time>2012-01-15T14:56:02Z</time>
      </trkpt>
      <trkpt lat="46.16722" lon="3.39207">
        <ele>264.1</ele>
        <time>2012-01-15T14:56:17Z</time>
      </trkpt>
      <trkpt lat="46.1673" lon="3.39187">
        <ele>265.9</ele>
        <time>2012-01-15T14:56:32Z</time>
      </trkpt>
      <trkpt lat="46.16742" lon="3.39165">
        <ele>268.2</ele>
        <time>2012-01-15T14:56:47Z</time>
      </trkpt>
      <trkpt lat="46.1675" lon="3.39149">
        <ele>269</ele>
        <time>2012-01-15T14:57:02Z</time>
      </trkpt>
      <trkpt lat="46.16764" lon="3.39132">
        <ele>269.6</ele>
        <time>2012-01-15T14:57:17Z</time>
      </trkpt>
      <trkpt lat="46.16772" lon="3.39125">
        <ele>269.9</ele>
        <time>2012-01-15T14:57:32Z</time>
      </trkpt>
      <trkpt lat="46.16792" lon="3.3912">
        <ele>270.2</ele>
        <time>2012-01-15T14:57:47Z</time>
      </trkpt>
      <trkpt lat="46.168" lon="3.3912">
        <ele>270.3</ele>
        <time>2012-01-15T14:58:02Z</time>
      </trkpt>
      <trkpt lat="46.16819" lon="3.39111">
        <ele>270.5</ele>
        <time>2012-01-15T14:58:17Z</time>
      </trkpt>
      <trkpt lat="46.16827" lon="3.39094">
        <ele>270.9</ele>
        <time>2012-01-15T14:58:32Z</time>
      </trkpt>
      <trkpt lat="46.16844" lon="3.39079">
        <ele>271</ele>
        <time>2012-01-15T14:58:47Z</time>
      </trkpt>
      <trkpt lat="46.16858" lon="3.39069">
        <ele>271</ele>
        <time>2012-01-15T14:59:02Z</time>
      </trkpt>
      <trkpt lat="46.16868" lon="3.39063">
        <ele>271</ele>
        <time>2012-01-15T14:59:17Z</time>
      </trkpt>
      <trkpt lat="46.16886" lon="3.39057">
        <ele>271</ele>
        <time>2012-01-15T14:59:32Z</time>
      </trkpt>
      <trkpt lat="46.16905" lon="3.39041">
        <ele>271</ele>
        <time>2012-01-15T14:59:47Z</time>
      </trkpt>
      <trkpt lat="46.16917" lon="3.3903">
        <ele>271</ele>
        <time>2012-01-15T15:00:02Z</time>
      </trkpt>
      <trkpt lat="46.16932" lon="3.39014">
        <ele>271</ele>
        <time>2012-01-15T15:00:17Z</time>
      </trkpt>
      <trkpt lat="46.16942" lon="3.38986">
        <ele>271</ele>
        <time>2012-01-15T15:00:32Z</time>
      </trkpt>
      <trkpt lat="46.16945" lon="3.38955">
        <ele>271</ele>
        <time>2012-01-15T15:00:47Z</time>
      </trkpt>
      <trkpt lat="46.16949" lon="3.38935">
        <ele>271</ele>
        <time>2012-01-15T15:01:02Z</time>
      </trkpt>
      <trkpt lat="46.16953" lon="3.38903">
        <ele>271</ele>
        <time>2012-01-15T15:01:17Z</time>
      </trkpt>
      <trkpt lat="46.16957" lon="3.38875">
        <ele>271</ele>
        <time>2012-01-15T15:01:32Z</time>
      </trkpt>
      <trkpt lat="46.16959" lon="3.38851">
        <ele>271</ele>
        <time>2012-01-15T15:01:47Z</time>
      </trkpt>
      <trkpt lat="46.16961" lon="3.38831">
        <ele>271</ele>
        <time>2012-01-15T15:02:02Z</time>
      </trkpt>
      <trkpt lat="46.16963" lon="3.38803">
        <ele>271</ele>
        <time>2012-01-15T15:02:17Z</time>
      </trkpt>
      <trkpt lat="46.16965" lon="3.38783">
        <ele>271</ele>
        <time>2012-01-15T15:02:32Z</time>
      </trkpt>
      <trkpt lat="46.16966" lon="3.38754">
        <ele>270.8</ele>
        <time>2012-01-15T15:02:47Z</time>
      </trkpt>
      <trkpt lat="46.16968" lon="3.38732">
        <ele>270.9</ele>
        <time>2012-01-15T15:03:02Z</time>
      </trkpt>
      <trkpt lat="46.16968" lon="3.38729">
        <ele>270.9</ele>
        <time>2012-01-15T15:03:17Z</time>
      </trkpt>
      <trkpt lat="46.16972" lon="3.38726">
        <ele>271</ele>
        <time>2012-01-15T15:03:32Z</time>
      </trkpt>
      <trkpt lat="46.16974" lon="3.38702">
        <ele>271</ele>
        <time>2012-01-15T15:03:47Z</time>
      </trkpt>
      <trkpt lat="46.1698" lon="3.38682">
        <ele>270.6</ele>
        <time>2012-01-15T15:04:02Z</time>
      </trkpt>
      <trkpt lat="46.16995" lon="3.38681">
        <ele>270.5</ele>
        <time>2012-01-15T15:04:17Z</time>
      </trkpt>
      <trkpt lat="46.17013" lon="3.38687">
        <ele>270.4</ele>
        <time>2012-01-15T15:04:32Z</time>
      </trkpt>
      <trkpt lat="46.17035" lon="3.38698">
        <ele>269.9</ele>
        <time>2012-01-15T15:04:47Z</time>
      </trkpt>
      <trkpt lat="46.17039" lon="3.38715">
        <ele>270.3</ele>
        <time>2012-01-15T15:05:02Z</time>
      </trkpt>
      <trkpt lat="46.17056" lon="3.38726">
        <ele>270.1</ele>
        <time>2012-01-15T15:05:17Z</time>
      </trkpt>
      <trkpt lat="46.17071" lon="3.38739">
        <ele>270.4</ele>
        <time>2012-01-15T15:05:32Z</time>
      </trkpt>
      <trkpt lat="46.17088" lon="3.38746">
        <ele>270.4</ele>
        <time>2012-01-15T15:05:47Z</time>
      </trkpt>
      <trkpt lat="46.17103" lon="3.38755">
        <ele>269.7</ele>
        <time>2012-01-15T15:06:02Z</time>
      </trkpt>
      <trkpt lat="46.17113" lon="3.38766">
        <ele>269.5</ele>
        <time>2012-01-15T15:06:17Z</time>
      </trkpt>
      <trkpt lat="46.17127" lon="3.38777">
        <ele>269.4</ele>
        <time>2012-01-15T15:06:32Z</time>
      </trkpt>
      <trkpt lat="46.17145" lon="3.38792">
        <ele>270.1</ele>
        <time>2012-01-15T15:06:47Z</time>
      </trkpt>
      <trkpt lat="46.17158" lon="3.38801">
        <ele>271.1</ele>
        <time>2012-01-15T15:07:02Z</time>
      </trkpt>
      <trkpt lat="46.17178" lon="3.38804">
        <ele>270.3</ele>
        <time>2012-01-15T15:07:17Z</time>
      </trkpt>
      <trkpt lat="46.17184" lon="3.38787">
        <ele>270.2</ele>
        <time>2012-01-15T15:07:32Z</time>
      </trkpt>
      <trkpt lat="46.17188" lon="3.38763">
        <ele>271.4</ele>
        <time>2012-01-15T15:07:47Z</time>
      </trkpt>
      <trkpt lat="46.17195" lon="3.38742">
        <ele>272</ele>
        <time>2012-01-15T15:08:02Z</time>
      </trkpt>
      <trkpt lat="46.17198" lon="3.38716">
        <ele>271.7</ele>
        <time>2012-01-15T15:08:17Z</time>
      </trkpt>
      <trkpt lat="46.17202" lon="3.38695">
        <ele>271</ele>
        <time>2012-01-15T15:08:32Z</time>
      </trkpt>
      <trkpt lat="46.17205" lon="3.38671">
        <ele>271</ele>
        <time>2012-01-15T15:08:47Z</time>
      </trkpt>
      <trkpt lat="46.17207" lon="3.3864">
        <ele>271</ele>
        <time>2012-01-15T15:09:02Z</time>
      </trkpt>
      <trkpt lat="46.17211" lon="3.38613">
        <ele>271</ele>
        <time>2012-01-15T15:09:17Z</time>
      </trkpt>
      <trkpt lat="46.17216" lon="3.38592">
        <ele>271</ele>
        <time>2012-01-15T15:09:32Z</time>
      </trkpt>
      <trkpt lat="46.17222" lon="3.3857">
        <ele>271</ele>
        <time>2012-01-15T15:09:47Z</time>
      </trkpt>
      <trkpt lat="46.17226" lon="3.38543">
        <ele>271</ele>
        <time>2012-01-15T15:10:02Z</time>
      </trkpt>
      <trkpt lat="46.17233" lon="3.38515">
        <ele>271</ele>
        <time>2012-01-15T15:10:17Z</time>
      </trkpt>
      <trkpt lat="46.17233" lon="3.38488">
        <ele>271.4</ele>
        <time>2012-01-15T15:10:32Z</time>
      </trkpt>
      <trkpt lat="46.17239" lon="3.38463">
        <ele>272</ele>
        <time>2012-01-15T15:10:47Z</time>
      </trkpt>
      <trkpt lat="46.17243" lon="3.38441">
        <ele>272</ele>
        <time>2012-01-15T15:11:02Z</time>
      </trkpt>
      <trkpt lat="46.17248" lon="3.3841">
        <ele>272.2</ele>
        <time>2012-01-15T15:11:17Z</time>
      </trkpt>
      <trkpt lat="46.17253" lon="3.38384">
        <ele>273</ele>
        <time>2012-01-15T15:11:32Z</time>
      </trkpt>
      <trkpt lat="46.17256" lon="3.38357">
        <ele>273</ele>
        <time>2012-01-15T15:11:47Z</time>
      </trkpt>
      <trkpt lat="46.1726" lon="3.38331">
        <ele>273</ele>
        <time>2012-01-15T15:12:02Z</time>
      </trkpt>
      <trkpt lat="46.17265" lon="3.38304">
        <ele>273</ele>
        <time>2012-01-15T15:12:17Z</time>
      </trkpt>
      <trkpt lat="46.17269" lon="3.3828">
        <ele>273</ele>
        <time>2012-01-15T15:12:32Z</time>
      </trkpt>
      <trkpt lat="46.17275" lon="3.38258">
        <ele>273.7</ele>
        <time>2012-01-15T15:12:47Z</time>
      </trkpt>
      <trkpt lat="46.17279" lon="3.38232">
        <ele>274</ele>
        <time>2012-01-15T15:13:02Z</time>
      </trkpt>
      <trkpt lat="46.17284" lon="3.38204">
        <ele>274.1</ele>
        <time>2012-01-15T15:13:17Z</time>
      </trkpt>
      <trkpt lat="46.17285" lon="3.38175">
        <ele>274.8</ele>
        <time>2012-01-15T15:13:32Z</time>
      </trkpt>
      <trkpt lat="46.1729" lon="3.38149">
        <ele>275</ele>
        <time>2012-01-15T15:13:47Z</time>
      </trkpt>
      <trkpt lat="46.17295" lon="3.38123">
        <ele>275.6</ele>
        <time>2012-01-15T15:14:02Z</time>
      </trkpt>
      <trkpt lat="46.17302" lon="3.38095">
        <ele>276</ele>
        <time>2012-01-15T15:14:17Z</time>
      </trkpt>
      <trkpt lat="46.17307" lon="3.38068">
        <ele>276.6</ele>
        <time>2012-01-15T15:14:32Z</time>
      </trkpt>
      <trkpt lat="46.17315" lon="3.38041">
        <ele>277.3</ele>
        <time>2012-01-15T15:14:47Z</time>
      </trkpt>
      <trkpt lat="46.17334" lon="3.38051">
        <ele>278</ele>
        <time>2012-01-15T15:15:02Z</time>
      </trkpt>
      <trkpt lat="46.17353" lon="3.38063">
        <ele>277.7</ele>
        <time>2012-01-15T15:15:17Z</time>
      </trkpt>
      <trkpt lat="46.17366" lon="3.38077">
        <ele>277.2</ele>
        <time>2012-01-15T15:15:32Z</time>
      </trkpt>
      <trkpt lat="46.17379" lon="3.381">
        <ele>276.8</ele>
        <time>2012-01-15T15:15:47Z</time>
      </trkpt>
      <trkpt lat="46.17387" lon="3.38118">
        <ele>276.7</ele>
        <time>2012-01-15T15:16:02Z</time>
      </trkpt>
      <trkpt lat="46.17402" lon="3.38143">
        <ele>275.8</ele>
        <time>2012-01-15T15:16:17Z</time>
      </trkpt>
      <trkpt lat="46.17411" lon="3.3816">
        <ele>275.2</ele>
        <time>2012-01-15T15:16:32Z</time>
      </trkpt>
      <trkpt lat="46.17423" lon="3.38183">
        <ele>274.5</ele>
        <time>2012-01-15T15:16:47Z</time>
      </trkpt>
      <trkpt lat="46.17435" lon="3.38202">
        <ele>274.5</ele>
        <time>2012-01-15T15:17:02Z</time>
      </trkpt>
      <trkpt lat="46.17449" lon="3.38226">
        <ele>273.9</ele>
        <time>2012-01-15T15:17:17Z</time>
      </trkpt>
      <trkpt lat="46.1746" lon="3.38248">
        <ele>273.6</ele>
        <time>2012-01-15T15:17:32Z</time>
      </trkpt>
      <trkpt lat="46.17472" lon="3.38273">
        <ele>273.2</ele>
        <time>2012-01-15T15:17:47Z</time>
      </trkpt>
      <trkpt lat="46.17479" lon="3.38299">
        <ele>273.1</ele>
        <time>2012-01-15T15:18:02Z</time>
      </trkpt>
      <trkpt lat="46.17487" lon="3.38326">
        <ele>273</ele>
        <time>2012-01-15T15:18:17Z</time>
      </trkpt>
      <trkpt lat="46.17497" lon="3.38347">
        <ele>272.9</ele>
        <time>2012-01-15T15:18:32Z</time>
      </trkpt>
      <trkpt lat="46.1751" lon="3.38365">
        <ele>273</ele>
        <time>2012-01-15T15:18:47Z</time>
      </trkpt>
      <trkpt lat="46.17522" lon="3.3839">
        <ele>273</ele>
        <time>2012-01-15T15:19:02Z</time>
      </trkpt>
      <trkpt lat="46.1753" lon="3.38413">
        <ele>272.1</ele>
        <time>2012-01-15T15:19:17Z</time>
      </trkpt>
      <trkpt lat="46.17535" lon="3.38441">
        <ele>272</ele>
        <time>2012-01-15T15:19:32Z</time>
      </trkpt>
      <trkpt lat="46.17539" lon="3.38472">
        <ele>271.4</ele>
        <time>2012-01-15T15:19:47Z</time>
      </trkpt>
      <trkpt lat="46.17542" lon="3.38498">
        <ele>271</ele>
        <time>2012-01-15T15:20:02Z</time>
      </trkpt>
      <trkpt lat="46.17545" lon="3.38528">
        <ele>271</ele>
        <time>2012-01-15T15:20:17Z</time>
      </trkpt>
      <trkpt lat="46.17546" lon="3.38554">
        <ele>271</ele>
        <time>2012-01-15T15:20:32Z</time>
      </trkpt>
      <trkpt lat="46.17555" lon="3.38588">
        <ele>271</ele>
        <time>2012-01-15T15:20:47Z</time>
      </trkpt>
      <trkpt lat="46.17562" lon="3.38616">
        <ele>271</ele>
        <time>2012-01-15T15:21:02Z</time>
      </trkpt>
      <trkpt lat="46.17565" lon="3.38644">
        <ele>271</ele>
        <time>2012-01-15T15:21:17Z</time>
      </trkpt>
      <trkpt lat="46.17571" lon="3.38665">
        <ele>271</ele>
        <time>2012-01-15T15:21:32Z</time>
      </trkpt>
      <trkpt lat="46.17575" lon="3.38691">
        <ele>271</ele>
        <time>2012-01-15T15:21:47Z</time>
      </trkpt>
      <trkpt lat="46.17581" lon="3.38716">
        <ele>271</ele>
        <time>2012-01-15T15:22:02Z</time>
      </trkpt>
      <trkpt lat="46.17582" lon="3.38745">
        <ele>270.2</ele>
        <time>2012-01-15T15:22:17Z</time>
      </trkpt>
      <trkpt lat="46.17584" lon="3.38769">
        <ele>270</ele>
        <time>2012-01-15T15:22:32Z</time>
      </trkpt>
      <trkpt lat="46.1759" lon="3.38797">
        <ele>270.5</ele>
        <time>2012-01-15T15:22:47Z</time>
      </trkpt>
      <trkpt lat="46.176" lon="3.38819">
        <ele>270.2</ele>
        <time>2012-01-15T15:23:02Z</time>
      </trkpt>
      <trkpt lat="46.17619" lon="3.38834">
        <ele>270</ele>
        <time>2012-01-15T15:23:17Z</time>
      </trkpt>
      <trkpt lat="46.17631" lon="3.38848">
        <ele>270</ele>
        <time>2012-01-15T15:23:32Z</time>
      </trkpt>
      <trkpt lat="46.17645" lon="3.38862">
        <ele>270</ele>
        <time>2012-01-15T15:23:47Z</time>
      </trkpt>
      <trkpt lat="46.17662" lon="3.38879">
        <ele>270</ele>
        <time>2012-01-15T15:24:02Z</time>
      </trkpt>
      <trkpt lat="46.17679" lon="3.38894">
        <ele>270</ele>
        <time>2012-01-15T15:24:17Z</time>
      </trkpt>
      <trkpt lat="46.17695" lon="3.38908">
        <ele>270</ele>
        <time>2012-01-15T15:24:32Z</time>
      </trkpt>
      <trkpt lat="46.17714" lon="3.38923">
        <ele>269.4</ele>
        <time>2012-01-15T15:24:47Z</time>
      </trkpt>
      <trkpt lat="46.17733" lon="3.38925">
        <ele>269.2</ele>
        <time>2012-01-15T15:25:02Z</time>
      </trkpt>
      <trkpt lat="46.17753" lon="3.3892">
        <ele>269</ele>
        <time>2012-01-15T15:25:17Z</time>
      </trkpt>
      <trkpt lat="46.17772" lon="3.38919">
        <ele>269</ele>
        <time>2012-01-15T15:25:32Z</time>
      </trkpt>
      <trkpt lat="46.17792" lon="3.38923">
        <ele>269</ele>
        <time>2012-01-15T15:25:47Z</time>
      </trkpt>
      <trkpt lat="46.17811" lon="3.38926">
        <ele>268.9</ele>
        <time>2012-01-15T15:26:02Z</time>
      </trkpt>
      <trkpt lat="46.1783" lon="3.3893">
        <ele>268.6</ele>
        <time>2012-01-15T15:26:17Z</time>
      </trkpt>
      <trkpt lat="46.17849" lon="3.38934">
        <ele>268.4</ele>
        <time>2012-01-15T15:26:32Z</time>
      </trkpt>
      <trkpt lat="46.17873" lon="3.38944">
        <ele>267.6</ele>
        <time>2012-01-15T15:26:47Z</time>
      </trkpt>
      <trkpt lat="46.17893" lon="3.38945">
        <ele>267.1</ele>
        <time>2012-01-15T15:27:02Z</time>
      </trkpt>
      <trkpt lat="46.17907" lon="3.38935">
        <ele>267.8</ele>
        <time>2012-01-15T15:27:17Z</time>
      </trkpt>
      <trkpt lat="46.17922" lon="3.38932">
        <ele>268.2</ele>
        <time>2012-01-15T15:27:32Z</time>
      </trkpt>
      <trkpt lat="46.17942" lon="3.3893">
        <ele>268.9</ele>
        <time>2012-01-15T15:27:47Z</time>
      </trkpt>
      <trkpt lat="46.17946" lon="3.38929">
        <ele>269</ele>
        <time>2012-01-15T15:28:02Z</time>
      </trkpt>
      <trkpt lat="46.17951" lon="3.38928">
        <ele>269</ele>
        <time>2012-01-15T15:28:17Z</time>
      </trkpt>
      <trkpt lat="46.17967" lon="3.38936">
        <ele>269</ele>
        <time>2012-01-15T15:28:32Z</time>
      </trkpt>
      <trkpt lat="46.17983" lon="3.3894">
        <ele>269</ele>
        <time>2012-01-15T15:28:47Z</time>
      </trkpt>
      <trkpt lat="46.18004" lon="3.38949">
        <ele>269</ele>
        <time>2012-01-15T15:29:02Z</time>
      </trkpt>
      <trkpt lat="46.18022" lon="3.38958">
        <ele>269</ele>
        <time>2012-01-15T15:29:17Z</time>
      </trkpt>
      <trkpt lat="46.18041" lon="3.38968">
        <ele>269</ele>
        <time>2012-01-15T15:29:32Z</time>
      </trkpt>
      <trkpt lat="46.18057" lon="3.38979">
        <ele>269</ele>
        <time>2012-01-15T15:29:47Z</time>
      </trkpt>
      <trkpt lat="46.18077" lon="3.38988">
        <ele>269.3</ele>
        <time>2012-01-15T15:30:02Z</time>
      </trkpt>
      <trkpt lat="46.18093" lon="3.38996">
        <ele>269.4</ele>
        <time>2012-01-15T15:30:17Z</time>
      </trkpt>
      <trkpt lat="46.1811" lon="3.39007">
        <ele>270</ele>
        <time>2012-01-15T15:30:32Z</time>
      </trkpt>
      <trkpt lat="46.18126" lon="3.39018">
        <ele>270</ele>
        <time>2012-01-15T15:30:47Z</time>
      </trkpt>
      <trkpt lat="46.18146" lon="3.39025">
        <ele>270</ele>
        <time>2012-01-15T15:31:02Z</time>
      </trkpt>
      <trkpt lat="46.18163" lon="3.39024">
        <ele>270</ele>
        <time>2012-01-15T15:31:17Z</time>
      </trkpt>
      <trkpt lat="46.18181" lon="3.39031">
        <ele>269.4</ele>
        <time>2012-01-15T15:31:32Z</time>
      </trkpt>
      <trkpt lat="46.18197" lon="3.39047">
        <ele>269</ele>
        <time>2012-01-15T15:31:47Z</time>
      </trkpt>
      <trkpt lat="46.18206" lon="3.39057">
        <ele>269</ele>
        <time>2012-01-15T15:32:02Z</time>
      </trkpt>
      <trkpt lat="46.18221" lon="3.39069">
        <ele>269</ele>
        <time>2012-01-15T15:32:17Z</time>
      </trkpt>
      <trkpt lat="46.18236" lon="3.39083">
        <ele>269</ele>
        <time>2012-01-15T15:32:32Z</time>
      </trkpt>
      <trkpt lat="46.1825" lon="3.39097">
        <ele>269</ele>
        <time>2012-01-15T15:32:47Z</time>
      </trkpt>
      <trkpt lat="46.18261" lon="3.39109">
        <ele>269</ele>
        <time>2012-01-15T15:33:02Z</time>
      </trkpt>
      <trkpt lat="46.18276" lon="3.39123">
        <ele>268.6</ele>
        <time>2012-01-15T15:33:17Z</time>
      </trkpt>
      <trkpt lat="46.18288" lon="3.39134">
        <ele>268.1</ele>
        <time>2012-01-15T15:33:32Z</time>
      </trkpt>
      <trkpt lat="46.18308" lon="3.39137">
        <ele>268</ele>
        <time>2012-01-15T15:33:47Z</time>
      </trkpt>
      <trkpt lat="46.18323" lon="3.39149">
        <ele>268</ele>
        <time>2012-01-15T15:34:02Z</time>
      </trkpt>
      <trkpt lat="46.18345" lon="3.3915">
        <ele>268.3</ele>
        <time>2012-01-15T15:34:17Z</time>
      </trkpt>
      <trkpt lat="46.18356" lon="3.3916">
        <ele>268.2</ele>
        <time>2012-01-15T15:34:32Z</time>
      </trkpt>
      <trkpt lat="46.18363" lon="3.39179">
        <ele>268</ele>
        <time>2012-01-15T15:34:47Z</time>
      </trkpt>
      <trkpt lat="46.18381" lon="3.39175">
        <ele>268</ele>
        <time>2012-01-15T15:35:02Z</time>
      </trkpt>
      <trkpt lat="46.18394" lon="3.3917">
        <ele>268</ele>
        <time>2012-01-15T15:35:17Z</time>
      </trkpt>
      <trkpt lat="46.18412" lon="3.39169">
        <ele>267.9</ele>
        <time>2012-01-15T15:35:32Z</time>
      </trkpt>
      <trkpt lat="46.18429" lon="3.39173">
        <ele>267.8</ele>
        <time>2012-01-15T15:35:47Z</time>
      </trkpt>
      <trkpt lat="46.18447" lon="3.39174">
        <ele>267.7</ele>
        <time>2012-01-15T15:36:02Z</time>
      </trkpt>
      <trkpt lat="46.18465" lon="3.39179">
        <ele>267.6</ele>
        <time>2012-01-15T15:36:17Z</time>
      </trkpt>
      <trkpt lat="46.18481" lon="3.39194">
        <ele>266.7</ele>
        <time>2012-01-15T15:36:32Z</time>
      </trkpt>
      <trkpt lat="46.18493" lon="3.39208">
        <ele>265.4</ele>
        <time>2012-01-15T15:36:47Z</time>
      </trkpt>
      <trkpt lat="46.18502" lon="3.39219">
        <ele>264.2</ele>
        <time>2012-01-15T15:37:02Z</time>
      </trkpt>
      <trkpt lat="46.18514" lon="3.39237">
        <ele>263.2</ele>
        <time>2012-01-15T15:37:17Z</time>
      </trkpt>
      <trkpt lat="46.18529" lon="3.39252">
        <ele>261.9</ele>
        <time>2012-01-15T15:37:32Z</time>
      </trkpt>
      <trkpt lat="46.18534" lon="3.39267">
        <ele>261.3</ele>
        <time>2012-01-15T15:37:47Z</time>
      </trkpt>
      <trkpt lat="46.18546" lon="3.39278">
        <ele>261</ele>
        <time>2012-01-15T15:38:02Z</time>
      </trkpt>
      <trkpt lat="46.18561" lon="3.3929">
        <ele>260.4</ele>
        <time>2012-01-15T15:38:17Z</time>
      </trkpt>
      <trkpt lat="46.18572" lon="3.3931">
        <ele>259.9</ele>
        <time>2012-01-15T15:38:32Z</time>
      </trkpt>
      <trkpt lat="46.1858" lon="3.39339">
        <ele>259.1</ele>
        <time>2012-01-15T15:38:47Z</time>
      </trkpt>
      <trkpt lat="46.18584" lon="3.39365">
        <ele>259</ele>
        <time>2012-01-15T15:39:02Z</time>
      </trkpt>
      <trkpt lat="46.18589" lon="3.39392">
        <ele>258.8</ele>
        <time>2012-01-15T15:39:17Z</time>
      </trkpt>
      <trkpt lat="46.18581" lon="3.39418">
        <ele>259</ele>
        <time>2012-01-15T15:39:32Z</time>
      </trkpt>
      <trkpt lat="46.18574" lon="3.39444">
        <ele>258.3</ele>
        <time>2012-01-15T15:39:47Z</time>
      </trkpt>
      <trkpt lat="46.18571" lon="3.39471">
        <ele>258</ele>
        <time>2012-01-15T15:40:02Z</time>
      </trkpt>
      <trkpt lat="46.1857" lon="3.39496">
        <ele>258</ele>
        <time>2012-01-15T15:40:17Z</time>
      </trkpt>
      <trkpt lat="46.18572" lon="3.39525">
        <ele>257.5</ele>
        <time>2012-01-15T15:40:32Z</time>
      </trkpt>
      <trkpt lat="46.18572" lon="3.39551">
        <ele>257.4</ele>
        <time>2012-01-15T15:40:47Z</time>
      </trkpt>
      <trkpt lat="46.18574" lon="3.39578">
        <ele>257.3</ele>
        <time>2012-01-15T15:41:02Z</time>
      </trkpt>
      <trkpt lat="46.18578" lon="3.39607">
        <ele>257</ele>
        <time>2012-01-15T15:41:17Z</time>
      </trkpt>
      <trkpt lat="46.18582" lon="3.39634">
        <ele>257</ele>
        <time>2012-01-15T15:41:32Z</time>
      </trkpt>
      <trkpt lat="46.18584" lon="3.39662">
        <ele>257</ele>
        <time>2012-01-15T15:41:47Z</time>
      </trkpt>
      <trkpt lat="46.18587" lon="3.39689">
        <ele>256.2</ele>
        <time>2012-01-15T15:42:02Z</time>
      </trkpt>
      <trkpt lat="46.18588" lon="3.39715">
        <ele>256</ele>
        <time>2012-01-15T15:42:17Z</time>
      </trkpt>
      <trkpt lat="46.18593" lon="3.3974">
        <ele>255.8</ele>
        <time>2012-01-15T15:42:32Z</time>
      </trkpt>
      <trkpt lat="46.18596" lon="3.39769">
        <ele>255.2</ele>
        <time>2012-01-15T15:42:47Z</time>
      </trkpt>
      <trkpt lat="46.18595" lon="3.3979">
        <ele>256</ele>
        <time>2012-01-15T15:43:02Z</time>
      </trkpt>
      <trkpt lat="46.18594" lon="3.39823">
        <ele>256.6</ele>
        <time>2012-01-15T15:43:17Z</time>
      </trkpt>
      <trkpt lat="46.18587" lon="3.39846">
        <ele>254.8</ele>
        <time>2012-01-15T15:43:32Z</time>
      </trkpt>
      <trkpt lat="46.18591" lon="3.39876">
        <ele>254.1</ele>
        <time>2012-01-15T15:43:47Z</time>
      </trkpt>
      <trkpt lat="46.18595" lon="3.39903">
        <ele>254</ele>
        <time>2012-01-15T15:44:02Z</time>
      </trkpt>
      <trkpt lat="46.18599" lon="3.39928">
        <ele>254</ele>
        <time>2012-01-15T15:44:17Z</time>
      </trkpt>
      <trkpt lat="46.18605" lon="3.39953">
        <ele>254</ele>
        <time>2012-01-15T15:44:32Z</time>
      </trkpt>
      <trkpt lat="46.18608" lon="3.39978">
        <ele>254</ele>
        <time>2012-01-15T15:44:47Z</time>
      </trkpt>
      <trkpt lat="46.18611" lon="3.40006">
        <ele>254</ele>
        <time>2012-01-15T15:45:02Z</time>
      </trkpt>
      <trkpt lat="46.18614" lon="3.40013">
        <ele>253.9</ele>
        <time>2012-01-15T15:45:17Z</time>
      </trkpt>
    </trkseg>
  </trk>
</gpx>